createdAt,value
2018-12-13T00:01:07.459Z,2.93
2018-12-13T00:03:35.772Z,2.87
2018-12-13T00:06:04.083Z,2.70
2018-12-13T00:08:32.398Z,3.00
2018-12-13T00:11:00.713Z,3.30
2018-12-13T00:13:29.027Z,3.10
2018-12-13T00:15:57.341Z,3.60
2018-12-13T00:18:25.652Z,3.30
2018-12-13T00:20:53.989Z,3.70
2018-12-13T00:23:22.297Z,3.27
2018-12-13T00:25:50.627Z,3.20
2018-12-13T00:28:18.951Z,3.33
2018-12-13T00:30:47.275Z,3.47
2018-12-13T00:33:15.591Z,3.70
2018-12-13T00:35:43.901Z,3.30
2018-12-13T00:38:12.225Z,2.67
2018-12-13T00:40:40.547Z,2.50
2018-12-13T00:43:08.862Z,2.40
2018-12-13T00:45:37.183Z,2.70
2018-12-13T00:48:05.496Z,3.30
2018-12-13T00:50:33.808Z,2.87
2018-12-13T00:53:02.133Z,2.90
2018-12-13T00:55:30.447Z,2.83
2018-12-13T00:57:58.765Z,2.70
2018-12-13T01:00:27.081Z,2.80
2018-12-13T01:02:55.407Z,2.90
2018-12-13T01:05:23.703Z,2.87
2018-12-13T01:07:52.018Z,2.90
2018-12-13T01:10:20.345Z,3.10
2018-12-13T01:12:48.664Z,3.40
2018-12-13T01:15:16.976Z,3.10
2018-12-13T01:17:45.287Z,3.03
2018-12-13T01:20:13.618Z,3.17
2018-12-13T01:22:41.936Z,3.33
2018-12-13T01:25:10.250Z,3.10
2018-12-13T01:27:38.565Z,3.20
2018-12-13T01:30:06.879Z,3.57
2018-12-13T01:32:35.207Z,3.80
2018-12-13T01:35:03.509Z,3.90
2018-12-13T01:37:31.891Z,4.07
2018-12-13T01:40:00.168Z,3.90
2018-12-13T01:42:28.487Z,3.10
2018-12-13T01:44:56.798Z,3.50
2018-12-13T01:47:25.107Z,3.40
2018-12-13T01:49:53.425Z,2.93
2018-12-13T01:52:21.752Z,2.50
2018-12-13T01:54:50.290Z,2.00
2018-12-13T01:57:18.378Z,1.87
2018-12-13T01:59:46.694Z,1.90
2018-12-13T02:02:15.007Z,2.00
2018-12-13T02:04:43.314Z,1.90
2018-12-13T02:07:11.629Z,2.20
2018-12-13T02:09:39.940Z,2.23
2018-12-13T02:12:08.250Z,2.40
2018-12-13T02:14:36.559Z,2.60
2018-12-13T02:17:04.869Z,2.30
2018-12-13T02:19:33.188Z,2.47
2018-12-13T02:22:01.511Z,2.43
2018-12-13T02:24:29.828Z,2.40
2018-12-13T02:26:58.149Z,2.13
2018-12-13T02:29:26.472Z,2.03
2018-12-13T02:31:54.789Z,1.90
2018-12-13T02:34:23.102Z,1.87
2018-12-13T02:36:51.408Z,2.00
2018-12-13T02:39:19.717Z,2.17
2018-12-13T02:41:48.051Z,2.23
2018-12-13T02:44:16.367Z,2.93
2018-12-13T02:46:44.691Z,3.07
2018-12-13T02:49:13.001Z,3.10
2018-12-13T02:51:41.313Z,3.10
2018-12-13T02:54:09.631Z,3.30
2018-12-13T02:56:37.946Z,3.10
2018-12-13T02:59:06.262Z,3.60
2018-12-13T03:01:34.579Z,3.23
2018-12-13T03:04:02.898Z,3.23
2018-12-13T03:06:31.215Z,3.60
2018-12-13T03:08:59.537Z,3.80
2018-12-13T03:11:27.858Z,4.10
2018-12-13T03:13:56.167Z,4.47
2018-12-13T03:16:24.538Z,4.83
2018-12-13T03:18:52.790Z,4.60
2018-12-13T03:21:21.101Z,4.73
2018-12-13T03:23:49.436Z,4.60
2018-12-13T03:26:17.742Z,4.97
2018-12-13T03:28:46.066Z,5.63
2018-12-13T03:31:14.380Z,5.50
2018-12-13T03:33:42.694Z,5.60
2018-12-13T03:36:11.055Z,5.50
2018-12-13T03:38:39.343Z,5.90
2018-12-13T03:41:07.653Z,5.50
2018-12-13T03:43:35.996Z,5.30
2018-12-13T03:46:04.322Z,6.00
2018-12-13T03:48:32.626Z,6.60
2018-12-13T03:51:00.941Z,7.07
2018-12-13T03:53:29.265Z,9.30
2018-12-13T03:55:57.579Z,6.57
2018-12-13T03:58:25.906Z,4.90
2018-12-13T04:00:54.218Z,3.57
2018-12-13T04:03:22.533Z,3.47
2018-12-13T04:05:50.840Z,3.83
2018-12-13T04:08:19.174Z,4.03
2018-12-13T04:10:47.488Z,3.80
2018-12-13T04:13:15.803Z,4.07
2018-12-13T04:15:44.134Z,4.07
2018-12-13T04:18:12.468Z,3.80
2018-12-13T04:20:40.788Z,3.70
2018-12-13T04:23:09.110Z,3.80
2018-12-13T04:25:37.431Z,3.70
2018-12-13T04:28:05.749Z,3.80
2018-12-13T04:30:34.065Z,3.40
2018-12-13T04:33:02.383Z,3.10
2018-12-13T04:35:30.713Z,3.20
2018-12-13T04:37:59.027Z,3.13
2018-12-13T04:40:27.351Z,3.30
2018-12-13T04:42:55.876Z,3.70
2018-12-13T04:45:23.998Z,3.93
2018-12-13T04:47:52.327Z,3.60
2018-12-13T04:50:20.661Z,2.83
2018-12-13T04:52:48.975Z,3.20
2018-12-13T04:55:17.295Z,3.13
2018-12-13T04:57:45.608Z,3.33
2018-12-13T05:00:13.917Z,3.47
2018-12-13T05:02:42.238Z,3.43
2018-12-13T05:05:10.574Z,3.87
2018-12-13T05:07:41.762Z,3.63
2018-12-13T05:10:07.215Z,3.53
2018-12-13T05:12:35.536Z,5.20
2018-12-13T05:15:03.859Z,28.97
2018-12-13T05:17:32.200Z,49.20
2018-12-13T05:20:00.531Z,12.50
2018-12-13T05:22:28.860Z,5.40
2018-12-13T05:24:57.191Z,24.10
2018-12-13T05:27:25.855Z,8.00
2018-12-13T05:29:54.183Z,7.60
2018-12-13T05:32:22.507Z,6.70
2018-12-13T05:34:50.819Z,5.50
2018-12-13T05:37:19.132Z,5.07
2018-12-13T05:39:47.458Z,4.90
2018-12-13T05:42:15.806Z,5.17
2018-12-13T05:44:44.118Z,5.30
2018-12-13T05:47:12.459Z,9.73
2018-12-13T05:49:40.810Z,8.80
2018-12-13T05:52:09.115Z,4.73
2018-12-13T05:54:37.444Z,4.60
2018-12-13T05:57:05.774Z,4.87
2018-12-13T05:59:34.085Z,5.50
2018-12-13T06:02:02.401Z,5.43
2018-12-13T06:04:30.725Z,4.77
2018-12-13T06:06:59.031Z,4.80
2018-12-13T06:09:27.345Z,5.43
2018-12-13T06:11:55.668Z,5.03
2018-12-13T06:14:23.994Z,6.27
2018-12-13T06:16:52.326Z,6.33
2018-12-13T06:19:26.584Z,5.63
2018-12-13T06:21:48.979Z,6.40
2018-12-13T06:24:17.301Z,6.17
2018-12-13T06:26:45.610Z,7.60
2018-12-13T06:29:14.226Z,7.07
2018-12-13T06:31:42.541Z,6.50
2018-12-13T06:34:11.128Z,14.50
2018-12-13T06:36:39.457Z,37.00
2018-12-13T06:39:07.784Z,6.20
2018-12-13T06:41:36.103Z,5.50
2018-12-13T06:44:04.413Z,4.93
2018-12-13T06:46:32.730Z,4.40
2018-12-13T06:49:01.101Z,9.87
2018-12-13T06:51:29.415Z,5.83
2018-12-13T06:53:57.756Z,4.47
2018-12-13T06:56:26.066Z,4.57
2018-12-13T06:58:54.977Z,5.00
2018-12-13T07:01:23.292Z,4.17
2018-12-13T07:03:51.608Z,4.60
2018-12-13T07:06:19.915Z,5.00
2018-12-13T07:08:54.004Z,5.53
2018-12-13T07:11:22.327Z,6.23
2018-12-13T07:13:50.644Z,7.23
2018-12-13T07:16:18.966Z,5.60
2018-12-13T07:18:47.283Z,4.90
2018-12-13T07:21:15.604Z,4.70
2018-12-13T07:23:43.922Z,5.07
2018-12-13T07:26:12.248Z,5.83
2018-12-13T07:28:40.577Z,6.27
2018-12-13T07:31:08.894Z,5.70
2018-12-13T07:33:37.212Z,5.23
2018-12-13T07:36:05.545Z,5.73
2018-12-13T07:38:33.877Z,6.20
2018-12-13T07:41:02.836Z,13.33
2018-12-13T07:43:31.401Z,18.27
2018-12-13T07:45:59.720Z,5.90
2018-12-13T07:48:28.039Z,5.70
2018-12-13T07:50:56.409Z,6.03
2018-12-13T07:53:24.735Z,5.47
2018-12-13T07:55:53.397Z,3.93
2018-12-13T07:58:21.724Z,4.27
2018-12-13T08:00:50.204Z,3.83
2018-12-13T08:03:18.519Z,3.50
2018-12-13T08:05:46.838Z,3.50
2018-12-13T08:08:20.647Z,4.00
2018-12-13T08:10:43.470Z,3.60
2018-12-13T08:13:12.302Z,3.53
2018-12-13T08:15:40.622Z,3.83
2018-12-13T08:18:08.968Z,13.50
2018-12-13T08:20:37.281Z,7.43
2018-12-13T08:23:05.597Z,10.27
2018-12-13T08:25:33.934Z,8.93
2018-12-13T08:28:02.248Z,6.77
2018-12-13T08:30:30.563Z,7.40
2018-12-13T08:32:58.944Z,7.20
2018-12-13T08:35:27.278Z,6.63
2018-12-13T08:37:55.596Z,5.63
2018-12-13T08:40:23.904Z,5.47
2018-12-13T08:42:52.220Z,4.97
2018-12-13T08:45:20.532Z,4.50
2018-12-13T08:47:48.856Z,4.47
2018-12-13T08:50:17.463Z,4.83
2018-12-13T08:52:46.514Z,4.37
2018-12-13T08:55:14.831Z,3.80
2018-12-13T08:57:43.160Z,3.20
2018-12-13T09:00:11.485Z,3.17
2018-12-13T09:02:39.796Z,3.13
2018-12-13T09:05:08.125Z,4.83
2018-12-13T09:07:36.458Z,15.30
2018-12-13T09:10:04.782Z,6.07
2018-12-13T09:12:33.096Z,4.83
2018-12-13T09:15:01.409Z,4.40
2018-12-13T09:17:29.731Z,5.13
2018-12-13T09:19:58.044Z,5.60
2018-12-13T09:22:26.367Z,7.20
2018-12-13T09:24:54.680Z,4.50
2018-12-13T09:27:23.005Z,4.60
2018-12-13T09:29:51.320Z,4.70
2018-12-13T09:32:19.652Z,4.87
2018-12-13T09:34:47.957Z,5.37
2018-12-13T09:37:16.277Z,6.50
2018-12-13T09:39:44.612Z,5.67
2018-12-13T09:42:13.854Z,5.57
2018-12-13T09:44:42.182Z,73.73
2018-12-13T09:47:10.790Z,37.47
2018-12-13T09:49:39.128Z,10.50
2018-12-13T09:52:07.786Z,7.53
2018-12-13T09:54:36.118Z,6.03
2018-12-13T09:57:04.428Z,4.47
2018-12-13T09:59:32.741Z,4.90
2018-12-13T10:02:01.062Z,4.40
2018-12-13T10:04:29.384Z,5.53
2018-12-13T10:06:57.707Z,5.73
2018-12-13T10:09:26.017Z,5.57
2018-12-13T10:11:54.343Z,6.77
2018-12-13T10:14:23.065Z,6.20
2018-12-13T10:16:51.513Z,5.30
2018-12-13T10:19:19.830Z,5.60
2018-12-13T10:21:48.159Z,6.97
2018-12-13T10:24:16.475Z,6.37
2018-12-13T10:26:44.791Z,6.63
2018-12-13T10:29:13.119Z,7.93
2018-12-13T10:31:41.687Z,5.60
2018-12-13T10:34:10.001Z,5.47
2018-12-13T10:36:38.330Z,5.30
2018-12-13T10:39:06.656Z,3.83
2018-12-13T10:41:34.974Z,3.60
2018-12-13T10:44:03.304Z,3.40
2018-12-13T10:46:31.621Z,3.40
2018-12-13T10:48:59.938Z,3.57
2018-12-13T10:51:28.268Z,3.50
2018-12-13T10:53:56.599Z,4.10
2018-12-13T10:56:24.937Z,4.13
2018-12-13T10:58:53.254Z,3.90
2018-12-13T11:01:27.119Z,4.00
2018-12-13T11:03:56.012Z,4.00
2018-12-13T11:06:24.336Z,4.50
2018-12-13T11:08:52.657Z,4.03
2018-12-13T11:11:20.975Z,4.20
2018-12-13T11:13:49.577Z,4.07
2018-12-13T11:16:17.904Z,5.20
2018-12-13T11:18:46.220Z,4.33
2018-12-13T11:21:17.504Z,3.80
2018-12-13T11:23:42.861Z,3.60
2018-12-13T11:26:11.187Z,4.20
2018-12-13T11:28:45.271Z,3.83
2018-12-13T11:31:13.848Z,4.20
2018-12-13T11:33:42.166Z,3.87
2018-12-13T11:36:10.486Z,3.80
2018-12-13T11:38:38.806Z,3.93
2018-12-13T11:41:07.117Z,4.47
2018-12-13T11:43:35.442Z,5.57
2018-12-13T11:46:03.758Z,5.43
2018-12-13T11:48:32.093Z,5.90
2018-12-13T11:51:00.416Z,5.00
2018-12-13T11:53:28.743Z,4.87
2018-12-13T11:55:57.057Z,4.93
2018-12-13T11:58:25.485Z,5.67
2018-12-13T12:00:53.799Z,5.83
2018-12-13T12:03:22.430Z,4.90
2018-12-13T12:05:50.744Z,4.77
2018-12-13T12:08:19.394Z,5.40
2018-12-13T12:10:47.727Z,5.50
2018-12-13T12:13:16.164Z,5.70
2018-12-13T12:15:44.501Z,5.27
2018-12-13T12:18:13.114Z,5.10
2018-12-13T12:20:41.431Z,4.10
2018-12-13T12:23:09.761Z,4.00
2018-12-13T12:25:38.074Z,4.80
2018-12-13T12:28:06.400Z,3.97
2018-12-13T12:30:34.717Z,4.20
2018-12-13T12:33:03.039Z,3.90
2018-12-13T12:35:31.373Z,4.40
2018-12-13T12:37:59.678Z,4.17
2018-12-13T12:40:27.995Z,3.30
2018-12-13T12:42:56.611Z,3.60
2018-12-13T12:45:25.138Z,3.93
2018-12-13T12:47:53.511Z,3.73
2018-12-13T12:50:21.828Z,3.90
2018-12-13T12:52:50.450Z,4.13
2018-12-13T12:55:18.768Z,3.90
2018-12-13T12:57:47.098Z,3.63
2018-12-13T13:00:15.925Z,3.67
2018-12-13T13:02:45.605Z,3.87
2018-12-13T13:05:12.593Z,3.87
2018-12-13T13:07:40.919Z,3.40
2018-12-13T13:10:09.539Z,5.20
2018-12-13T13:12:37.624Z,4.30
2018-12-13T13:15:05.957Z,5.40
2018-12-13T13:17:37.368Z,8.30
2018-12-13T13:20:05.794Z,7.70
2018-12-13T13:22:34.101Z,4.00
2018-12-13T13:25:03.912Z,3.57
2018-12-13T13:27:32.013Z,3.53
2018-12-13T13:30:00.183Z,3.60
2018-12-13T13:32:28.653Z,3.20
2018-12-13T13:34:56.984Z,3.67
2018-12-13T13:37:25.320Z,3.70
2018-12-13T13:39:53.651Z,3.60
2018-12-13T13:42:21.958Z,3.63
2018-12-13T13:44:50.278Z,4.27
2018-12-13T13:47:18.601Z,4.13
2018-12-13T13:49:46.942Z,5.50
2018-12-13T13:52:15.276Z,5.33
2018-12-13T13:54:43.598Z,5.07
2018-12-13T13:57:11.918Z,4.70
2018-12-13T13:59:40.987Z,4.90
2018-12-13T14:02:09.323Z,5.13
2018-12-13T14:04:37.663Z,5.30
2018-12-13T14:07:05.982Z,5.70
2018-12-13T14:09:37.874Z,6.07
2018-12-13T14:12:03.002Z,6.50
2018-12-13T14:14:31.616Z,8.00
2018-12-13T14:17:00.109Z,8.17
2018-12-13T14:19:29.446Z,10.10
2018-12-13T14:21:57.546Z,9.17
2018-12-13T14:24:25.865Z,9.10
2018-12-13T14:26:54.201Z,8.77
2018-12-13T14:29:22.545Z,17.10
2018-12-13T14:31:50.882Z,16.83
2018-12-13T14:34:19.484Z,23.33
2018-12-13T14:36:47.814Z,20.77
2018-12-13T14:39:16.159Z,27.90
2018-12-13T14:41:44.509Z,28.23
2018-12-13T14:44:12.831Z,23.77
2018-12-13T14:46:41.183Z,23.77
2018-12-13T14:49:09.502Z,25.13
2018-12-13T14:51:38.135Z,28.17
2018-12-13T14:54:06.497Z,32.57
2018-12-13T14:56:35.745Z,28.17
2018-12-13T14:59:04.086Z,28.77
2018-12-13T15:01:32.417Z,21.50
2018-12-13T15:04:00.926Z,88.97
2018-12-13T15:06:29.283Z,31.07
2018-12-13T15:08:57.612Z,42.50
2018-12-13T15:11:25.951Z,25.40
2018-12-13T15:13:54.280Z,23.80
2018-12-13T15:16:22.633Z,20.20
2018-12-13T15:18:50.974Z,17.40
2018-12-13T15:21:19.330Z,13.97
2018-12-13T15:23:47.666Z,21.60
2018-12-13T15:26:16.022Z,21.90
2018-12-13T15:28:44.407Z,38.93
2018-12-13T15:31:12.921Z,47.40
2018-12-13T15:33:41.442Z,56.33
2018-12-13T15:36:09.766Z,51.33
2018-12-13T15:38:38.404Z,49.37
2018-12-13T15:41:07.535Z,45.50
2018-12-13T15:43:35.872Z,40.53
2018-12-13T15:46:04.212Z,35.97
2018-12-13T15:48:32.548Z,30.43
2018-12-13T15:51:00.875Z,21.93
2018-12-13T15:53:29.204Z,14.07
2018-12-13T15:55:57.560Z,9.07
2018-12-13T15:58:26.163Z,9.30
2018-12-13T16:00:54.484Z,21.60
2018-12-13T16:03:22.823Z,35.13
2018-12-13T16:05:51.192Z,15.03
2018-12-13T16:08:19.529Z,9.03
2018-12-13T16:10:47.945Z,6.20
2018-12-13T16:13:16.338Z,6.33
2018-12-13T16:15:44.611Z,6.43
2018-12-13T16:18:13.216Z,6.10
2018-12-13T16:20:41.900Z,6.60
2018-12-13T16:23:10.223Z,7.23
2018-12-13T16:25:38.870Z,8.20
2018-12-13T16:28:07.867Z,11.37
2018-12-13T16:30:36.211Z,10.03
2018-12-13T16:33:04.568Z,8.00
2018-12-13T16:35:32.891Z,7.53
2018-12-13T16:38:01.230Z,5.30
2018-12-13T16:40:29.554Z,4.90
2018-12-13T16:42:57.879Z,4.40
2018-12-13T16:45:26.220Z,4.80
2018-12-13T16:47:54.597Z,4.70
2018-12-13T16:50:22.922Z,4.97
2018-12-13T16:52:51.254Z,4.80
2018-12-13T16:55:19.662Z,7.17
2018-12-13T16:57:47.997Z,6.43
2018-12-13T17:00:16.314Z,5.23
2018-12-13T17:02:44.633Z,6.10
2018-12-13T17:05:12.985Z,20.63
2018-12-13T17:07:41.369Z,66.47
2018-12-13T17:10:09.743Z,5.70
2018-12-13T17:12:38.092Z,5.10
2018-12-13T17:15:06.542Z,5.93
2018-12-13T17:17:34.856Z,5.87
2018-12-13T17:20:03.191Z,5.40
2018-12-13T17:22:31.546Z,4.70
2018-12-13T17:25:00.166Z,5.40
2018-12-13T17:27:28.484Z,4.97
2018-12-13T17:29:57.054Z,4.70
2018-12-13T17:32:25.150Z,4.30
2018-12-13T17:34:53.492Z,5.03
2018-12-13T17:37:22.114Z,4.13
2018-12-13T17:39:50.438Z,4.80
2018-12-13T17:42:18.805Z,5.37
2018-12-13T17:44:47.173Z,4.90
2018-12-13T17:47:15.561Z,4.50
2018-12-13T17:49:49.264Z,4.87
2018-12-13T17:52:23.026Z,5.03
2018-12-13T17:54:51.354Z,4.60
2018-12-13T17:57:19.705Z,4.50
2018-12-13T17:59:48.022Z,5.57
2018-12-13T18:02:16.357Z,8.10
2018-12-13T18:04:44.676Z,8.87
2018-12-13T18:07:13.009Z,6.80
2018-12-13T18:09:41.340Z,6.97
2018-12-13T18:12:09.677Z,7.30
2018-12-13T18:14:38.005Z,8.63
2018-12-13T18:17:06.376Z,7.37
2018-12-13T18:19:35.949Z,6.00
2018-12-13T18:22:06.496Z,8.00
2018-12-13T18:24:33.761Z,7.37
2018-12-13T18:27:01.863Z,7.43
2018-12-13T18:29:30.200Z,8.43
2018-12-13T18:31:58.518Z,6.50
2018-12-13T18:34:26.829Z,4.60
2018-12-13T18:36:55.852Z,3.50
2018-12-13T18:39:24.221Z,5.87
2018-12-13T18:41:52.537Z,4.23
2018-12-13T18:44:20.932Z,5.03
2018-12-13T18:46:49.296Z,4.07
2018-12-13T18:49:17.657Z,15.77
2018-12-13T18:51:46.048Z,11.07
2018-12-13T18:54:14.361Z,5.47
2018-12-13T18:56:42.677Z,5.20
2018-12-13T18:59:11.289Z,4.90
2018-12-13T19:01:39.619Z,5.10
2018-12-13T19:04:08.225Z,5.03
2018-12-13T19:06:36.568Z,4.77
2018-12-13T19:09:04.887Z,4.53
2018-12-13T19:11:35.907Z,3.93
2018-12-13T19:14:03.358Z,24.90
2018-12-13T19:16:32.692Z,10.20
2018-12-13T19:19:02.420Z,4.13
2018-12-13T19:21:30.750Z,6.50
2018-12-13T19:24:01.982Z,9.93
2018-12-13T19:26:30.537Z,5.23
2018-12-13T19:28:58.682Z,3.80
2018-12-13T19:31:27.008Z,3.20
2018-12-13T19:33:55.380Z,3.60
2018-12-13T19:36:23.726Z,3.50
2018-12-13T19:38:52.487Z,3.43
2018-12-13T19:41:21.392Z,3.03
2018-12-13T19:43:49.727Z,3.23
2018-12-13T19:46:18.079Z,3.40
2018-12-13T19:48:46.397Z,5.03
2018-12-13T19:51:14.754Z,6.87
2018-12-13T19:53:43.082Z,4.10
2018-12-13T19:56:11.385Z,4.10
2018-12-13T19:58:39.715Z,4.00
2018-12-13T20:01:08.984Z,23.27
2018-12-13T20:03:37.335Z,17.47
2018-12-13T20:06:05.677Z,3.90
2018-12-13T20:08:33.989Z,3.90
2018-12-13T20:11:03.149Z,3.60
2018-12-13T20:13:31.639Z,14.50
2018-12-13T20:16:00.017Z,6.43
2018-12-13T20:18:28.598Z,4.30
2018-12-13T20:20:57.080Z,4.10
2018-12-13T20:23:26.426Z,4.60
2018-12-13T20:25:55.340Z,3.40
2018-12-13T20:28:23.748Z,3.20
2018-12-13T20:30:52.153Z,3.17
2018-12-13T20:33:22.167Z,2.77
2018-12-13T20:35:50.859Z,3.30
2018-12-13T20:38:19.802Z,3.60
2018-12-13T20:40:49.217Z,24.50
2018-12-13T20:43:17.639Z,3.97
2018-12-13T20:45:46.695Z,3.07
2018-12-13T20:48:15.027Z,2.73
2018-12-13T20:50:44.526Z,3.00
2018-12-13T20:53:12.900Z,3.20
2018-12-13T20:55:44.220Z,3.87
2018-12-13T20:58:12.325Z,2.93
2018-12-13T21:00:40.642Z,3.10
2018-12-13T21:03:08.970Z,3.40
2018-12-13T21:05:37.301Z,3.50
2018-12-13T21:08:13.781Z,3.47
2018-12-13T21:10:40.776Z,3.67
2018-12-13T21:13:09.399Z,3.30
2018-12-13T21:15:37.839Z,3.47
2018-12-13T21:18:06.165Z,3.47
2018-12-13T21:20:34.491Z,3.10
2018-12-13T21:23:02.864Z,4.20
2018-12-13T21:25:32.234Z,31.10
2018-12-13T21:28:01.509Z,22.93
2018-12-13T21:30:29.838Z,5.40
2018-12-13T21:32:58.561Z,4.37
2018-12-13T21:35:26.882Z,5.43
2018-12-13T21:37:55.211Z,7.60
2018-12-13T21:40:23.548Z,7.77
2018-12-13T21:42:51.866Z,7.03
2018-12-13T21:45:20.246Z,8.20
2018-12-13T21:47:49.306Z,8.93
2018-12-13T21:50:17.696Z,8.53
2018-12-13T21:52:46.119Z,7.20
2018-12-13T21:55:14.462Z,7.90
2018-12-13T21:57:43.128Z,8.43
2018-12-13T22:00:11.426Z,8.93
2018-12-13T22:02:39.796Z,7.60
2018-12-13T22:05:08.156Z,8.00
2018-12-13T22:07:36.580Z,7.90
2018-12-13T22:10:04.918Z,9.23
2018-12-13T22:12:33.264Z,10.43
2018-12-13T22:15:02.614Z,70.00
2018-12-13T22:17:30.007Z,10.00
2018-12-13T22:19:58.345Z,8.40
2018-12-13T22:22:26.670Z,7.93
2018-12-13T22:24:55.801Z,8.80
2018-12-13T22:27:24.128Z,8.90
2018-12-13T22:29:53.132Z,9.53
2018-12-13T22:32:22.367Z,10.80
2018-12-13T22:34:50.679Z,9.87
2018-12-13T22:37:19.040Z,8.07
2018-12-13T22:39:47.361Z,8.70
2018-12-13T22:42:15.695Z,7.30
2018-12-13T22:44:44.030Z,7.00
2018-12-13T22:47:12.354Z,7.60
2018-12-13T22:49:40.666Z,7.67
2018-12-13T22:52:09.001Z,8.83
2018-12-13T22:54:37.333Z,10.20
2018-12-13T22:57:05.651Z,9.57
2018-12-13T22:59:33.987Z,9.20
2018-12-13T23:02:02.310Z,8.00
2018-12-13T23:04:30.657Z,9.20
2018-12-13T23:06:58.972Z,9.33
2018-12-13T23:09:27.298Z,9.33
2018-12-13T23:11:55.623Z,9.00
2018-12-13T23:14:23.945Z,7.33
2018-12-13T23:16:52.282Z,16.23
2018-12-13T23:19:20.631Z,7.83
2018-12-13T23:21:48.947Z,7.17
2018-12-13T23:24:17.276Z,7.00
2018-12-13T23:26:45.600Z,8.17
2018-12-13T23:29:13.926Z,7.23
2018-12-13T23:31:42.259Z,7.03
2018-12-13T23:34:10.610Z,7.40
2018-12-13T23:36:38.890Z,7.00
2018-12-13T23:39:07.218Z,8.27
2018-12-13T23:41:39.148Z,7.77
2018-12-13T23:44:03.881Z,7.40
2018-12-13T23:46:32.194Z,6.30
2018-12-13T23:49:00.523Z,6.10
2018-12-13T23:51:28.854Z,11.53
2018-12-13T23:53:57.174Z,14.37
2018-12-13T23:56:25.484Z,6.17
2018-12-13T23:58:53.800Z,7.73
